createdAt,value
2022-09-24T00:01:26.394Z,6.40
2022-09-24T00:03:56.026Z,6.00
2022-09-24T00:06:23.742Z,6.50
2022-09-24T00:08:52.432Z,6.37
2022-09-24T00:11:21.843Z,6.80
2022-09-24T00:13:50.205Z,6.70
2022-09-24T00:16:18.887Z,8.10
2022-09-24T00:18:45.689Z,7.27
2022-09-24T00:21:24.504Z,7.47
2022-09-24T00:23:53.456Z,8.43
2022-09-24T00:26:39.712Z,7.17
2022-09-24T00:29:08.123Z,7.43
2022-09-24T00:31:35.779Z,6.90
2022-09-24T00:34:02.982Z,7.53
2022-09-24T00:36:30.024Z,7.60
2022-09-24T00:38:59.085Z,8.03
2022-09-24T00:41:28.984Z,7.90
2022-09-24T00:43:56.454Z,8.03
2022-09-24T00:46:43.217Z,7.80
2022-09-24T00:49:19.511Z,7.70
2022-09-24T00:51:50.339Z,7.70
2022-09-24T00:54:24.779Z,7.93
2022-09-24T00:56:53.950Z,8.00
2022-09-24T00:59:24.000Z,8.40
2022-09-24T01:01:54.013Z,8.43
2022-09-24T01:04:21.946Z,7.93
2022-09-24T01:06:50.144Z,8.43
2022-09-24T01:09:19.148Z,8.27
2022-09-24T01:11:58.312Z,8.13
2022-09-24T01:14:50.143Z,8.23
2022-09-24T01:17:46.313Z,8.53
2022-09-24T01:20:37.891Z,8.13
2022-09-24T01:23:32.361Z,8.70
2022-09-24T01:26:38.473Z,8.07
2022-09-24T01:29:33.165Z,7.60
2022-09-24T01:32:11.599Z,8.47
2022-09-24T01:34:43.712Z,7.57
2022-09-24T01:37:14.842Z,7.93
2022-09-24T01:39:45.404Z,8.33
2022-09-24T01:42:13.670Z,8.17
2022-09-24T01:44:44.353Z,7.67
2022-09-24T01:47:18.613Z,8.20
2022-09-24T01:49:46.078Z,8.07
2022-09-24T01:52:18.747Z,8.00
2022-09-24T01:54:52.043Z,8.07
2022-09-24T01:57:24.209Z,8.43
2022-09-24T02:00:12.082Z,7.90
2022-09-24T02:02:54.785Z,8.57
2022-09-24T02:05:38.966Z,7.50
2022-09-24T02:08:13.197Z,8.83
2022-09-24T02:10:57.803Z,8.60
2022-09-24T02:13:29.034Z,8.90
2022-09-24T02:16:00.159Z,8.03
2022-09-24T02:18:34.708Z,7.93
2022-09-24T02:21:06.282Z,8.70
2022-09-24T02:23:37.198Z,9.10
2022-09-24T02:26:05.579Z,7.73
2022-09-24T02:28:33.506Z,8.03
2022-09-24T02:31:12.415Z,7.90
2022-09-24T02:34:00.756Z,8.40
2022-09-24T02:36:29.207Z,7.80
2022-09-24T02:38:56.345Z,8.23
2022-09-24T02:41:25.054Z,7.87
2022-09-24T02:43:52.860Z,7.97
2022-09-24T02:46:20.230Z,8.23
2022-09-24T02:48:47.001Z,8.57
2022-09-24T02:51:13.838Z,9.00
2022-09-24T02:53:40.449Z,8.97
2022-09-24T02:56:08.953Z,8.53
2022-09-24T02:58:37.624Z,8.77
2022-09-24T03:01:05.341Z,8.60
2022-09-24T03:03:32.915Z,8.53
2022-09-24T03:05:59.869Z,8.43
2022-09-24T03:08:27.288Z,8.87
2022-09-24T03:10:56.248Z,8.57
2022-09-24T03:13:23.642Z,9.30
2022-09-24T03:15:50.642Z,9.50
2022-09-24T03:18:17.499Z,9.07
2022-09-24T03:20:44.431Z,8.63
2022-09-24T03:23:11.446Z,9.23
2022-09-24T03:25:38.759Z,9.70
2022-09-24T03:28:05.603Z,9.37
2022-09-24T03:30:50.715Z,8.83
2022-09-24T03:33:17.484Z,9.30
2022-09-24T03:35:44.278Z,9.87
2022-09-24T03:38:11.180Z,9.47
2022-09-24T03:40:37.934Z,9.23
2022-09-24T03:43:04.773Z,8.80
2022-09-24T03:45:31.701Z,9.07
2022-09-24T03:47:58.523Z,9.30
2022-09-24T03:50:25.796Z,9.53
2022-09-24T03:52:52.496Z,9.97
2022-09-24T03:55:19.460Z,10.03
2022-09-24T03:57:46.638Z,10.47
2022-09-24T04:00:13.944Z,10.30
2022-09-24T04:02:41.142Z,10.10
2022-09-24T04:05:08.330Z,10.47
2022-09-24T04:07:35.115Z,10.70
2022-09-24T04:10:01.980Z,10.07
2022-09-24T04:12:29.674Z,10.03
2022-09-24T04:14:56.415Z,10.23
2022-09-24T04:17:23.291Z,10.73
2022-09-24T04:19:54.068Z,10.80
2022-09-24T04:22:21.443Z,9.07
2022-09-24T04:24:48.183Z,10.40
2022-09-24T04:27:15.354Z,9.53
2022-09-24T04:29:42.013Z,9.87
2022-09-24T04:32:08.906Z,10.10
2022-09-24T04:34:35.818Z,11.70
2022-09-24T04:37:02.595Z,11.53
2022-09-24T04:39:29.393Z,12.47
2022-09-24T04:41:56.195Z,11.67
2022-09-24T04:44:23.686Z,13.20
2022-09-24T04:46:50.779Z,12.67
2022-09-24T04:49:17.564Z,12.40
2022-09-24T04:51:44.462Z,11.33
2022-09-24T04:54:11.337Z,11.63
2022-09-24T04:56:38.343Z,12.07
2022-09-24T04:59:05.146Z,12.67
2022-09-24T05:01:32.106Z,13.23
2022-09-24T05:03:59.104Z,12.60
2022-09-24T05:06:25.848Z,12.70
2022-09-24T05:08:52.927Z,12.97
2022-09-24T05:11:19.984Z,12.87
2022-09-24T05:13:46.737Z,13.17
2022-09-24T05:16:13.644Z,13.93
2022-09-24T05:18:42.576Z,13.57
2022-09-24T05:21:09.670Z,13.60
2022-09-24T05:23:36.492Z,13.83
2022-09-24T05:26:22.014Z,14.10
2022-09-24T05:28:48.924Z,13.73
2022-09-24T05:31:15.813Z,12.70
2022-09-24T05:33:42.840Z,14.40
2022-09-24T05:36:09.775Z,13.87
2022-09-24T05:38:38.838Z,13.87
2022-09-24T05:41:08.379Z,14.87
2022-09-24T05:43:35.183Z,13.17
2022-09-24T05:46:02.240Z,14.00
2022-09-24T05:48:29.217Z,13.00
2022-09-24T05:50:56.481Z,14.23
2022-09-24T05:53:23.901Z,14.00
2022-09-24T05:55:50.930Z,13.93
2022-09-24T05:58:18.252Z,15.10
2022-09-24T06:00:47.697Z,14.37
2022-09-24T06:03:16.759Z,13.13
2022-09-24T06:05:49.133Z,13.27
2022-09-24T06:08:17.483Z,14.23
2022-09-24T06:10:48.117Z,14.13
2022-09-24T06:13:18.546Z,14.20
2022-09-24T06:15:45.508Z,14.57
2022-09-24T06:18:12.678Z,16.00
2022-09-24T06:20:40.469Z,14.83
2022-09-24T06:23:07.909Z,14.70
2022-09-24T06:25:34.925Z,15.27
2022-09-24T06:28:04.048Z,15.90
2022-09-24T06:30:38.139Z,16.47
2022-09-24T06:33:07.847Z,16.23
2022-09-24T06:35:36.835Z,17.33
2022-09-24T06:38:04.935Z,18.10
2022-09-24T06:40:36.485Z,18.70
2022-09-24T06:43:14.345Z,19.53
2022-09-24T06:45:43.223Z,20.53
2022-09-24T06:48:12.337Z,19.10
2022-09-24T06:50:44.694Z,17.53
2022-09-24T06:53:12.287Z,19.30
2022-09-24T06:55:39.531Z,19.20
2022-09-24T06:58:12.475Z,19.23
2022-09-24T07:00:40.691Z,18.30
2022-09-24T07:03:08.239Z,20.63
2022-09-24T07:05:39.550Z,19.53
2022-09-24T07:08:09.549Z,19.67
2022-09-24T07:10:36.346Z,20.60
2022-09-24T07:13:03.332Z,19.60
2022-09-24T07:15:30.192Z,20.10
2022-09-24T07:17:57.320Z,19.97
2022-09-24T07:20:28.285Z,20.33
2022-09-24T07:22:56.060Z,20.40
2022-09-24T07:25:22.859Z,20.73
2022-09-24T07:27:49.693Z,19.97
2022-09-24T07:30:16.942Z,21.13
2022-09-24T07:32:43.900Z,22.37
2022-09-24T07:35:10.692Z,22.30
2022-09-24T07:37:37.453Z,22.63
2022-09-24T07:40:04.571Z,21.77
2022-09-24T07:42:31.412Z,20.37
2022-09-24T07:45:01.311Z,21.53
2022-09-24T07:47:28.067Z,21.73
2022-09-24T07:49:54.794Z,21.30
2022-09-24T07:52:22.189Z,21.33
2022-09-24T07:54:49.669Z,21.93
2022-09-24T07:57:16.391Z,22.43
2022-09-24T07:59:44.886Z,21.63
2022-09-24T08:02:17.088Z,21.80
2022-09-24T08:04:44.677Z,22.03
2022-09-24T08:07:12.900Z,20.60
2022-09-24T08:09:40.033Z,21.70
2022-09-24T08:12:07.588Z,20.90
2022-09-24T08:14:34.352Z,20.27
2022-09-24T08:17:01.938Z,21.70
2022-09-24T08:19:31.032Z,21.47
2022-09-24T08:21:58.513Z,20.17
2022-09-24T08:24:25.985Z,17.43
2022-09-24T08:26:52.765Z,17.83
2022-09-24T08:29:19.623Z,17.90
2022-09-24T08:31:46.413Z,16.63
2022-09-24T08:34:15.271Z,16.40
2022-09-24T08:36:43.281Z,15.33
2022-09-24T08:39:11.788Z,16.47
2022-09-24T08:41:50.605Z,16.13
2022-09-24T08:44:50.428Z,15.53
2022-09-24T08:47:43.402Z,15.40
2022-09-24T08:50:23.305Z,15.43
2022-09-24T08:52:59.722Z,16.10
2022-09-24T08:55:44.413Z,15.17
2022-09-24T08:58:29.079Z,16.13
2022-09-24T09:01:15.245Z,15.33
2022-09-24T09:04:03.702Z,15.90
2022-09-24T09:07:07.594Z,16.60
2022-09-24T09:09:46.629Z,15.30
2022-09-24T09:12:19.942Z,15.00
2022-09-24T09:14:56.138Z,16.37
2022-09-24T09:17:43.050Z,15.40
2022-09-24T09:20:35.313Z,16.07
2022-09-24T09:23:18.229Z,16.63
2022-09-24T09:25:53.481Z,16.43
2022-09-24T09:28:21.199Z,16.33
2022-09-24T09:30:54.277Z,15.97
2022-09-24T09:33:40.156Z,15.47
2022-09-24T09:36:26.134Z,14.93
2022-09-24T09:39:13.390Z,15.23
2022-09-24T09:42:04.734Z,14.57
2022-09-24T09:44:40.573Z,15.50
2022-09-24T09:47:37.884Z,14.53
2022-09-24T09:50:12.780Z,16.00
2022-09-24T09:52:40.320Z,15.80
2022-09-24T09:55:08.247Z,16.60
2022-09-24T09:57:36.870Z,16.97
2022-09-24T10:00:05.387Z,17.07
2022-09-24T10:02:35.468Z,16.70
2022-09-24T10:05:04.591Z,17.13
2022-09-24T10:07:32.930Z,18.27
2022-09-24T10:10:25.323Z,19.00
2022-09-24T10:16:17.466Z,18.67
2022-09-24T10:18:49.339Z,18.87
2022-09-24T10:21:35.201Z,18.70
2022-09-24T10:24:05.519Z,18.43
2022-09-24T10:26:44.697Z,19.40
2022-09-24T10:29:37.746Z,18.43
2022-09-24T10:32:07.908Z,18.77
2022-09-24T10:34:35.657Z,19.23
2022-09-24T10:37:13.708Z,15.03
2022-09-24T10:39:41.182Z,14.13
2022-09-24T10:42:26.131Z,14.53
2022-09-24T10:44:54.525Z,13.63
2022-09-24T10:47:44.797Z,13.33
2022-09-24T10:50:32.224Z,13.97
2022-09-24T10:53:13.877Z,13.83
2022-09-24T10:56:13.267Z,14.37
2022-09-24T10:59:08.264Z,14.27
2022-09-24T11:01:58.301Z,13.10
2022-09-24T11:04:44.823Z,12.83
2022-09-24T11:07:44.838Z,14.33
2022-09-24T11:10:42.330Z,15.50
2022-09-24T11:13:21.682Z,14.27
2022-09-24T11:15:53.598Z,13.40
2022-09-24T11:19:01.724Z,12.67
2022-09-24T11:22:11.570Z,12.00
2022-09-24T11:24:55.518Z,12.47
2022-09-24T11:27:28.521Z,12.67
2022-09-24T11:30:04.674Z,11.93
2022-09-24T11:32:57.981Z,12.77
2022-09-24T11:35:42.616Z,9.70
2022-09-24T11:38:10.650Z,9.57
2022-09-24T11:40:59.107Z,9.10
2022-09-24T11:43:48.783Z,10.60
2022-09-24T11:46:31.089Z,9.47
2022-09-24T11:49:12.302Z,9.37
2022-09-24T11:51:59.179Z,8.30
2022-09-24T11:54:56.843Z,7.13
2022-09-24T11:57:40.481Z,6.80
2022-09-24T12:00:32.411Z,8.57
2022-09-24T12:03:07.847Z,7.63
2022-09-24T12:05:44.525Z,7.07
2022-09-24T12:08:27.853Z,6.43
2022-09-24T12:11:06.926Z,5.40
2022-09-24T12:13:41.964Z,7.00
2022-09-24T12:16:13.682Z,6.00
2022-09-24T12:18:54.753Z,6.07
2022-09-24T12:21:33.299Z,5.20
2022-09-24T12:24:13.747Z,5.13
2022-09-24T12:26:42.883Z,5.17
2022-09-24T12:29:55.701Z,5.00
2022-09-24T12:32:53.065Z,5.03
2022-09-24T12:35:28.774Z,5.40
2022-09-24T12:38:04.976Z,5.30
2022-09-24T12:40:56.221Z,4.70
2022-09-24T12:43:31.179Z,5.13
2022-09-24T12:46:06.220Z,4.97
2022-09-24T12:48:37.486Z,5.77
2022-09-24T12:51:07.387Z,4.90
2022-09-24T12:53:40.687Z,5.20
2022-09-24T12:56:09.803Z,5.17
2022-09-24T12:58:38.716Z,5.43
2022-09-24T13:01:24.377Z,5.20
2022-09-24T13:04:16.595Z,5.20
2022-09-24T13:06:47.946Z,5.40
2022-09-24T13:09:26.766Z,5.10
2022-09-24T13:12:32.401Z,5.07
2022-09-24T13:15:06.731Z,4.63
2022-09-24T13:17:35.671Z,5.17
2022-09-24T13:20:08.443Z,4.80
2022-09-24T13:22:37.745Z,4.53
2022-09-24T13:25:07.937Z,4.73
2022-09-24T13:27:41.912Z,4.37
2022-09-24T13:30:09.647Z,4.40
2022-09-24T13:32:46.929Z,4.73
2022-09-24T13:35:24.393Z,4.37
2022-09-24T13:37:58.383Z,4.50
2022-09-24T13:40:29.076Z,4.40
2022-09-24T13:43:11.893Z,4.43
2022-09-24T13:45:43.871Z,4.20
2022-09-24T13:48:38.067Z,4.40
2022-09-24T13:51:11.915Z,4.67
2022-09-24T13:53:52.134Z,4.17
2022-09-24T13:56:24.095Z,4.63
2022-09-24T13:59:04.768Z,4.63
2022-09-24T14:01:38.927Z,4.60
2022-09-24T14:04:21.238Z,4.80
2022-09-24T14:06:54.751Z,4.27
2022-09-24T14:09:36.420Z,4.43
2022-09-24T14:12:22.112Z,4.67
2022-09-24T14:14:58.249Z,5.10
2022-09-24T14:17:26.419Z,4.97
2022-09-24T14:19:57.415Z,4.93
2022-09-24T14:22:32.414Z,5.43
2022-09-24T14:25:31.739Z,4.77
2022-09-24T14:28:01.263Z,5.43
2022-09-24T14:30:30.648Z,5.70
2022-09-24T14:33:07.373Z,5.20
2022-09-24T14:35:37.171Z,5.57
2022-09-24T14:38:24.649Z,5.63
2022-09-24T14:41:05.400Z,5.67
2022-09-24T14:43:41.856Z,5.73
2022-09-24T14:46:17.569Z,5.60
2022-09-24T14:48:44.973Z,6.07
2022-09-24T14:51:28.779Z,6.10
2022-09-24T14:54:06.504Z,5.37
2022-09-24T14:56:35.201Z,5.73
2022-09-24T14:59:02.162Z,5.80
2022-09-24T15:01:33.983Z,5.50
2022-09-24T15:04:08.296Z,5.27
2022-09-24T15:06:37.811Z,4.90
2022-09-24T15:09:16.042Z,5.53
2022-09-24T15:11:43.873Z,5.70
2022-09-24T15:14:16.639Z,5.87
2022-09-24T15:16:47.103Z,6.27
2022-09-24T15:19:27.673Z,6.33
2022-09-24T15:21:59.006Z,6.70
2022-09-24T15:24:26.083Z,6.87
2022-09-24T15:27:05.932Z,7.13
2022-09-24T15:29:33.755Z,6.90
2022-09-24T15:32:02.321Z,7.23
2022-09-24T15:34:31.628Z,7.80
2022-09-24T15:37:00.864Z,7.10
2022-09-24T15:39:29.888Z,7.57
2022-09-24T15:41:58.217Z,8.43
2022-09-24T15:44:33.617Z,8.13
2022-09-24T15:47:03.232Z,8.27
2022-09-24T15:49:32.573Z,8.63
2022-09-24T15:52:07.462Z,8.63
2022-09-24T15:54:35.556Z,8.30
2022-09-24T15:57:03.408Z,9.03
2022-09-24T15:59:31.228Z,8.07
2022-09-24T16:02:03.364Z,7.90
2022-09-24T16:04:31.306Z,7.33
2022-09-24T16:06:59.430Z,7.20
2022-09-24T16:09:27.586Z,8.00
2022-09-24T16:11:57.808Z,8.53
2022-09-24T16:14:29.974Z,8.10
2022-09-24T16:16:58.919Z,7.73
2022-09-24T16:19:27.658Z,8.03
2022-09-24T16:21:56.350Z,7.33
2022-09-24T16:24:23.231Z,6.57
2022-09-24T16:26:51.163Z,7.50
2022-09-24T16:29:19.953Z,7.67
2022-09-24T16:31:48.235Z,8.03
2022-09-24T16:34:16.693Z,8.10
2022-09-24T16:36:44.660Z,7.37
2022-09-24T16:39:17.461Z,8.80
2022-09-24T16:41:49.197Z,8.10
2022-09-24T16:44:23.074Z,9.20
2022-09-24T16:46:51.190Z,8.70
2022-09-24T16:49:19.741Z,9.03
2022-09-24T16:51:47.495Z,9.33
2022-09-24T16:54:17.927Z,10.20
2022-09-24T16:56:45.825Z,9.97
2022-09-24T16:59:13.842Z,10.27
2022-09-24T17:01:42.721Z,9.53
2022-09-24T17:04:12.741Z,11.20
2022-09-24T17:06:40.546Z,10.43
2022-09-24T17:09:28.462Z,9.87
2022-09-24T17:11:57.296Z,11.03
2022-09-24T17:14:27.092Z,11.67
2022-09-24T17:16:57.244Z,12.10
2022-09-24T17:19:24.611Z,11.27
2022-09-24T17:21:52.355Z,10.70
2022-09-24T17:24:21.968Z,13.00
2022-09-24T17:26:50.345Z,12.73
2022-09-24T17:29:22.455Z,13.10
2022-09-24T17:31:51.271Z,11.90
2022-09-24T17:34:19.109Z,12.23
2022-09-24T17:36:47.401Z,12.73
2022-09-24T17:39:15.167Z,14.03
2022-09-24T17:41:42.803Z,13.90
2022-09-24T17:44:13.288Z,13.10
2022-09-24T17:46:44.181Z,12.37
2022-09-24T17:49:12.326Z,14.53
2022-09-24T17:51:39.852Z,14.23
2022-09-24T17:54:09.824Z,14.70
2022-09-24T17:56:40.657Z,15.37
2022-09-24T17:59:13.635Z,14.60
2022-09-24T18:01:43.790Z,15.37
2022-09-24T18:04:20.590Z,15.47
2022-09-24T18:06:49.050Z,15.90
2022-09-24T18:09:18.335Z,16.00
2022-09-24T18:11:51.614Z,16.63
2022-09-24T18:14:21.538Z,17.40
2022-09-24T18:16:49.606Z,19.00
2022-09-24T18:19:18.207Z,18.77
2022-09-24T18:22:08.309Z,20.10
2022-09-24T18:24:37.090Z,18.80
2022-09-24T18:27:07.515Z,17.27
2022-09-24T18:29:35.235Z,18.10
2022-09-24T18:32:04.641Z,17.43
2022-09-24T18:34:34.364Z,17.97
2022-09-24T18:37:01.857Z,17.97
2022-09-24T18:39:29.731Z,19.80
2022-09-24T18:41:57.316Z,18.17
2022-09-24T18:44:24.122Z,18.50
2022-09-24T18:46:52.610Z,19.47
2022-09-24T18:49:19.696Z,19.77
2022-09-24T18:51:47.671Z,20.10
2022-09-24T18:54:18.631Z,20.33
2022-09-24T18:56:50.698Z,20.27
2022-09-24T18:59:38.760Z,21.57
2022-09-24T19:02:22.022Z,20.53
2022-09-24T19:04:51.261Z,22.20
2022-09-24T19:07:19.080Z,22.80
2022-09-24T19:09:46.882Z,23.90
2022-09-24T19:12:19.461Z,22.63
2022-09-24T19:14:47.094Z,23.33
2022-09-24T19:17:16.260Z,25.47
2022-09-24T19:19:52.111Z,23.77
2022-09-24T19:22:20.359Z,24.97
2022-09-24T19:24:49.720Z,26.23
2022-09-24T19:27:17.438Z,26.03
2022-09-24T19:29:45.594Z,25.60
2022-09-24T19:32:15.447Z,28.73
2022-09-24T19:34:43.334Z,26.20
2022-09-24T19:37:11.729Z,28.00
2022-09-24T19:39:42.514Z,28.83
2022-09-24T19:42:10.630Z,29.53
2022-09-24T19:44:40.202Z,32.13
2022-09-24T19:47:10.930Z,31.30
2022-09-24T19:49:39.715Z,33.23
2022-09-24T19:52:07.612Z,33.93
2022-09-24T19:54:35.077Z,33.23
2022-09-24T19:57:02.770Z,35.83
2022-09-24T19:59:32.349Z,34.57
2022-09-24T20:02:00.109Z,35.47
2022-09-24T20:04:28.382Z,37.53
2022-09-24T20:06:56.774Z,35.10
2022-09-24T20:09:24.509Z,35.53
2022-09-24T20:11:52.487Z,35.67
2022-09-24T20:14:21.238Z,36.93
2022-09-24T20:16:48.873Z,35.00
2022-09-24T20:19:17.128Z,32.90
2022-09-24T20:21:44.070Z,32.73
2022-09-24T20:24:17.199Z,37.00
2022-09-24T20:27:04.239Z,35.70
2022-09-24T20:29:32.980Z,35.67
2022-09-24T20:32:00.978Z,33.73
2022-09-24T20:34:33.704Z,36.93
2022-09-24T20:37:03.205Z,35.90
2022-09-24T20:39:32.271Z,34.00
2022-09-24T20:42:06.371Z,33.40
2022-09-24T20:44:35.697Z,35.87
2022-09-24T20:47:04.874Z,35.33
2022-09-24T20:49:33.830Z,35.60
2022-09-24T20:52:03.406Z,36.30
2022-09-24T20:54:34.091Z,38.60
2022-09-24T20:57:03.956Z,36.37
2022-09-24T20:59:32.016Z,37.77
2022-09-24T21:02:04.239Z,38.00
2022-09-24T21:04:40.640Z,37.13
2022-09-24T21:07:10.124Z,38.67
2022-09-24T21:09:38.043Z,36.87
2022-09-24T21:12:08.361Z,38.03
2022-09-24T21:14:38.837Z,39.67
2022-09-24T21:17:08.833Z,38.87
2022-09-24T21:19:38.016Z,39.50
2022-09-24T21:22:08.045Z,38.80
2022-09-24T21:24:38.202Z,40.27
2022-09-24T21:27:07.678Z,40.27
2022-09-24T21:29:35.574Z,40.37
2022-09-24T21:32:03.465Z,39.47
2022-09-24T21:34:31.281Z,41.30
2022-09-24T21:36:58.631Z,40.83
2022-09-24T21:39:29.280Z,39.30
2022-09-24T21:41:59.648Z,40.83
2022-09-24T21:44:31.278Z,41.40
2022-09-24T21:46:59.542Z,39.43
2022-09-24T21:49:27.476Z,39.87
2022-09-24T21:51:57.136Z,39.63
2022-09-24T21:54:24.313Z,37.87
2022-09-24T21:56:54.579Z,38.60
2022-09-24T21:59:40.393Z,37.33
2022-09-24T22:02:10.409Z,33.47
2022-09-24T22:04:38.655Z,33.73
2022-09-24T22:07:07.551Z,37.27
2022-09-24T22:09:35.387Z,35.23
2022-09-24T22:12:04.865Z,34.37
2022-09-24T22:14:35.260Z,34.73
2022-09-24T22:17:04.620Z,33.83
2022-09-24T22:19:33.107Z,34.60
2022-09-24T22:22:00.809Z,30.60
2022-09-24T22:24:28.769Z,31.10
2022-09-24T22:26:57.823Z,31.70
2022-09-24T22:29:25.257Z,31.13
2022-09-24T22:31:53.320Z,31.73
2022-09-24T22:34:39.236Z,30.07
2022-09-24T22:37:07.715Z,31.90
2022-09-24T22:39:36.050Z,29.77
2022-09-24T22:42:03.532Z,29.80
2022-09-24T22:44:32.274Z,30.37
2022-09-24T22:46:59.064Z,29.27
2022-09-24T22:49:27.203Z,30.63
2022-09-24T22:51:54.861Z,29.67
2022-09-24T22:54:21.877Z,29.00
2022-09-24T22:56:49.573Z,27.50
2022-09-24T22:59:17.821Z,27.47
2022-09-24T23:01:45.819Z,28.50
2022-09-24T23:04:15.152Z,29.00
2022-09-24T23:06:43.862Z,31.43
2022-09-24T23:09:11.669Z,32.47
2022-09-24T23:11:39.565Z,31.17
2022-09-24T23:14:12.192Z,31.90
2022-09-24T23:16:40.119Z,30.57
2022-09-24T23:19:12.986Z,32.77
2022-09-24T23:21:40.831Z,31.20
2022-09-24T23:24:14.125Z,31.63
2022-09-24T23:26:41.940Z,32.30
2022-09-24T23:29:10.706Z,32.20
2022-09-24T23:31:37.645Z,29.70
2022-09-24T23:34:07.709Z,29.43
2022-09-24T23:36:36.648Z,30.40
2022-09-24T23:39:04.780Z,28.43
2022-09-24T23:41:32.485Z,29.30
2022-09-24T23:44:00.372Z,28.70
2022-09-24T23:46:27.916Z,28.47
2022-09-24T23:48:56.541Z,28.13
2022-09-24T23:51:23.450Z,25.63
2022-09-24T23:53:50.847Z,25.70
2022-09-24T23:56:19.641Z,24.70
2022-09-24T23:58:47.132Z,24.43
